createdAt,value
2023-10-18T00:00:44.949Z,15.00
2023-10-18T00:03:35.620Z,15.00
2023-10-18T00:06:23.816Z,15.00
2023-10-18T00:09:28.308Z,15.00
2023-10-18T00:12:18.017Z,15.00
2023-10-18T00:15:03.867Z,15.00
2023-10-18T00:17:50.673Z,15.00
2023-10-18T00:20:36.918Z,15.00
2023-10-18T00:23:23.644Z,15.00
2023-10-18T00:26:11.158Z,15.10
2023-10-18T00:28:57.070Z,15.10
2023-10-18T00:31:42.764Z,15.00
2023-10-18T00:34:29.564Z,15.00
2023-10-18T00:37:18.057Z,15.00
2023-10-18T00:40:08.740Z,15.10
2023-10-18T00:42:54.848Z,15.10
2023-10-18T00:45:45.535Z,15.10
2023-10-18T00:48:31.871Z,15.00
2023-10-18T00:51:20.429Z,15.00
2023-10-18T00:54:11.871Z,15.10
2023-10-18T00:56:59.497Z,15.10
2023-10-18T00:59:45.421Z,15.20
2023-10-18T01:02:31.452Z,15.10
2023-10-18T01:05:17.333Z,14.90
2023-10-18T01:08:08.358Z,14.80
2023-10-18T01:10:58.605Z,14.70
2023-10-18T01:13:44.668Z,14.80
2023-10-18T01:16:32.746Z,14.80
2023-10-18T01:19:19.659Z,14.80
2023-10-18T01:22:07.412Z,14.80
2023-10-18T01:24:53.960Z,14.60
2023-10-18T01:27:39.821Z,14.50
2023-10-18T01:30:26.029Z,14.50
2023-10-18T01:33:12.061Z,14.70
2023-10-18T01:35:57.685Z,14.50
2023-10-18T01:38:53.437Z,14.60
2023-10-18T01:41:39.315Z,14.50
2023-10-18T01:44:40.190Z,14.60
2023-10-18T01:47:26.270Z,14.50
2023-10-18T01:50:12.672Z,14.60
2023-10-18T01:53:00.690Z,14.60
2023-10-18T01:55:54.765Z,14.60
2023-10-18T01:58:40.771Z,14.60
2023-10-18T02:04:35.853Z,14.60
2023-10-18T02:07:30.432Z,14.50
2023-10-18T02:10:24.655Z,14.30
2023-10-18T02:13:15.263Z,14.40
2023-10-18T02:16:01.189Z,14.30
2023-10-18T02:18:51.727Z,14.40
2023-10-18T02:21:37.376Z,14.40
2023-10-18T02:24:24.663Z,14.40
2023-10-18T02:27:16.673Z,14.40
2023-10-18T02:30:02.440Z,14.30
2023-10-18T02:32:49.553Z,14.10
2023-10-18T02:35:42.018Z,14.10
2023-10-18T02:38:27.994Z,14.00
2023-10-18T02:41:16.697Z,14.00
2023-10-18T02:46:55.688Z,14.00
2023-10-18T02:49:41.730Z,14.10
2023-10-18T02:52:31.653Z,14.10
2023-10-18T02:55:20.827Z,14.10
2023-10-18T02:58:08.207Z,14.00
2023-10-18T03:00:54.171Z,14.00
2023-10-18T03:03:41.228Z,14.10
2023-10-18T03:06:29.558Z,14.20
2023-10-18T03:09:35.832Z,14.10
2023-10-18T03:12:23.407Z,14.10
2023-10-18T03:15:10.582Z,14.10
2023-10-18T03:17:57.532Z,14.10
2023-10-18T03:20:43.416Z,14.10
2023-10-18T03:23:32.400Z,14.00
2023-10-18T03:26:34.758Z,14.00
2023-10-18T03:29:22.086Z,14.10
2023-10-18T03:32:09.247Z,14.00
2023-10-18T03:37:42.320Z,14.00
2023-10-18T03:40:30.975Z,14.00
2023-10-18T03:43:17.830Z,14.10
2023-10-18T03:46:37.063Z,14.10
2023-10-18T03:49:31.845Z,14.10
2023-10-18T03:52:18.502Z,14.10
2023-10-18T03:55:05.443Z,14.10
2023-10-18T03:57:55.706Z,14.10
2023-10-18T04:00:48.280Z,14.10
2023-10-18T04:03:36.332Z,14.00
2023-10-18T04:06:29.597Z,14.10
2023-10-18T04:09:17.546Z,14.10
2023-10-18T04:12:05.705Z,14.00
2023-10-18T04:14:56.971Z,14.10
2023-10-18T04:17:43.990Z,14.10
2023-10-18T04:20:35.689Z,14.00
2023-10-18T04:23:27.529Z,14.10
2023-10-18T04:26:23.170Z,14.00
2023-10-18T04:29:11.994Z,13.90
2023-10-18T04:31:57.951Z,13.80
2023-10-18T04:34:45.372Z,13.80
2023-10-18T04:37:31.716Z,13.70
2023-10-18T04:40:29.819Z,13.80
2023-10-18T04:43:19.977Z,13.70
2023-10-18T04:46:15.999Z,13.80
2023-10-18T04:49:02.410Z,13.80
2023-10-18T04:51:50.171Z,13.80
2023-10-18T04:57:23.680Z,13.90
2023-10-18T05:00:26.498Z,14.10
2023-10-18T05:03:14.806Z,14.00
2023-10-18T05:06:02.082Z,14.00
2023-10-18T05:08:50.030Z,13.90
2023-10-18T05:11:47.348Z,13.90
2023-10-18T05:17:37.203Z,13.80
2023-10-18T05:20:32.341Z,13.70
2023-10-18T05:23:28.393Z,13.60
2023-10-18T05:29:18.875Z,13.70
2023-10-18T05:32:10.630Z,13.60
2023-10-18T05:35:13.339Z,13.60
2023-10-18T05:37:59.538Z,13.90
2023-10-18T05:40:56.928Z,13.40
2023-10-18T05:43:44.450Z,13.50
2023-10-18T05:46:35.375Z,13.60
2023-10-18T05:49:30.099Z,13.10
2023-10-18T05:52:17.096Z,13.50
2023-10-18T05:55:04.303Z,13.20
2023-10-18T05:57:51.302Z,13.50
2023-10-18T06:00:37.450Z,13.20
2023-10-18T06:03:27.518Z,13.30
2023-10-18T06:06:13.672Z,13.20
2023-10-18T06:08:59.832Z,13.10
2023-10-18T06:11:49.465Z,13.30
2023-10-18T06:14:42.112Z,14.00
2023-10-18T06:17:28.292Z,13.10
2023-10-18T06:20:31.172Z,13.20
2023-10-18T06:23:25.658Z,13.10
2023-10-18T06:26:30.706Z,13.20
2023-10-18T06:29:23.836Z,13.30
2023-10-18T06:32:14.363Z,13.10
2023-10-18T06:35:05.740Z,13.10
2023-10-18T06:37:51.574Z,13.20
2023-10-18T06:41:07.415Z,13.40
2023-10-18T06:43:56.038Z,13.30
2023-10-18T06:46:45.419Z,13.20
2023-10-18T06:49:31.250Z,13.00
2023-10-18T06:52:20.028Z,13.10
2023-10-18T06:55:06.789Z,13.10
2023-10-18T06:57:58.110Z,13.10
2023-10-18T07:00:54.813Z,13.00
2023-10-18T07:03:44.356Z,12.90
2023-10-18T07:06:37.281Z,12.20
2023-10-18T07:09:37.912Z,12.80
2023-10-18T07:12:45.277Z,12.30
2023-10-18T07:15:35.573Z,12.70
2023-10-18T07:18:22.196Z,12.70
2023-10-18T07:21:08.261Z,12.50
2023-10-18T07:23:54.925Z,12.40
2023-10-18T07:26:40.976Z,12.80
2023-10-18T07:29:30.282Z,12.80
2023-10-18T07:35:02.200Z,12.90
2023-10-18T07:40:42.110Z,11.90
2023-10-18T07:43:28.364Z,12.50
2023-10-18T07:46:20.512Z,12.70
2023-10-18T07:49:16.848Z,11.90
2023-10-18T07:52:02.978Z,12.70
2023-10-18T07:54:49.981Z,12.20
2023-10-18T07:57:47.876Z,12.30
2023-10-18T08:00:36.672Z,12.30
2023-10-18T08:03:22.825Z,12.30
2023-10-18T08:09:06.678Z,11.90
2023-10-18T08:11:53.577Z,12.30
2023-10-18T08:17:31.608Z,12.70
2023-10-18T08:23:35.790Z,11.80
2023-10-18T08:32:06.025Z,12.30
2023-10-18T08:34:51.835Z,11.90
2023-10-18T08:40:34.685Z,11.90
2023-10-18T08:43:31.527Z,12.50
2023-10-18T08:46:18.802Z,11.90
2023-10-18T08:49:09.038Z,12.30
2023-10-18T08:52:12.718Z,11.90
2023-10-18T08:58:21.699Z,11.90
2023-10-18T09:03:58.932Z,12.20
2023-10-18T09:09:36.965Z,12.90
2023-10-18T09:12:45.459Z,12.30
2023-10-18T09:15:48.886Z,11.80
2023-10-18T09:18:43.493Z,12.30
2023-10-18T09:21:37.467Z,12.10
2023-10-18T09:24:32.236Z,12.10
2023-10-18T09:27:18.195Z,11.80
2023-10-18T09:30:05.375Z,12.50
2023-10-18T09:32:51.144Z,12.60
2023-10-18T09:35:36.759Z,12.10
2023-10-18T09:41:09.387Z,12.10
2023-10-18T09:43:57.055Z,12.30
2023-10-18T09:46:43.712Z,12.20
2023-10-18T09:49:32.653Z,12.20
2023-10-18T09:52:19.601Z,11.80
2023-10-18T09:55:08.939Z,12.00
2023-10-18T09:58:12.930Z,12.10
2023-10-18T10:00:59.696Z,12.10
2023-10-18T10:03:51.938Z,12.00
2023-10-18T10:06:46.536Z,11.70
2023-10-18T10:12:28.842Z,12.20
2023-10-18T10:15:15.199Z,11.90
2023-10-18T10:18:02.948Z,11.70
2023-10-18T10:20:49.103Z,11.70
2023-10-18T10:23:36.767Z,11.80
2023-10-18T10:26:33.664Z,11.80
2023-10-18T10:29:26.100Z,11.80
2023-10-18T10:32:17.186Z,11.80
2023-10-18T10:35:25.464Z,11.90
2023-10-18T10:38:20.176Z,11.90
2023-10-18T10:41:32.088Z,12.00
2023-10-18T10:44:33.838Z,12.10
2023-10-18T10:47:30.854Z,12.00
2023-10-18T10:50:53.652Z,12.00
2023-10-18T10:53:46.566Z,12.00
2023-10-18T10:56:35.999Z,11.80
2023-10-18T11:02:10.166Z,11.80
2023-10-18T11:05:02.025Z,12.00
2023-10-18T11:07:48.345Z,11.80
2023-10-18T11:10:40.972Z,11.90
2023-10-18T11:13:27.060Z,11.70
2023-10-18T11:16:13.219Z,11.70
2023-10-18T11:19:01.442Z,11.80
2023-10-18T11:21:52.917Z,11.80
2023-10-18T11:26:17.377Z,11.80
2023-10-18T11:30:48.413Z,12.20
2023-10-18T11:33:57.345Z,12.20
2023-10-18T11:36:43.708Z,12.10
2023-10-18T11:39:35.840Z,12.10
2023-10-18T11:42:21.764Z,12.10
2023-10-18T11:45:08.081Z,12.20
2023-10-18T11:47:53.958Z,12.20
2023-10-18T11:50:46.563Z,12.30
2023-10-18T11:53:33.919Z,12.30
2023-10-18T11:56:21.021Z,12.30
2023-10-18T11:59:07.102Z,12.40
2023-10-18T12:02:08.281Z,12.40
2023-10-18T12:04:54.444Z,12.30
2023-10-18T12:10:37.453Z,12.80
2023-10-18T12:13:23.527Z,12.40
2023-10-18T12:16:10.605Z,12.30
2023-10-18T12:18:56.584Z,13.40
2023-10-18T12:21:49.787Z,12.30
2023-10-18T12:24:36.194Z,12.20
2023-10-18T12:27:37.074Z,12.20
2023-10-18T12:30:32.700Z,12.30
2023-10-18T12:33:26.776Z,12.30
2023-10-18T12:36:23.624Z,12.00
2023-10-18T12:39:14.166Z,12.40
2023-10-18T12:42:00.183Z,12.20
2023-10-18T12:44:47.387Z,12.10
2023-10-18T12:47:33.645Z,12.20
2023-10-18T12:50:20.585Z,12.00
2023-10-18T12:53:19.257Z,12.40
2023-10-18T12:56:34.256Z,12.40
2023-10-18T12:59:26.719Z,12.30
2023-10-18T13:02:32.455Z,12.20
2023-10-18T13:05:20.158Z,12.30
2023-10-18T13:08:17.149Z,12.30
2023-10-18T13:13:52.055Z,12.30
2023-10-18T13:16:37.753Z,12.80
2023-10-18T13:19:25.430Z,12.60
2023-10-18T13:25:10.070Z,12.60
2023-10-18T13:27:56.305Z,12.10
2023-10-18T13:30:45.180Z,12.60
2023-10-18T13:33:31.864Z,15.40
2023-10-18T13:36:18.339Z,12.60
2023-10-18T13:39:13.060Z,12.30
2023-10-18T13:42:00.192Z,12.20
2023-10-18T13:44:46.358Z,12.00
2023-10-18T13:47:34.661Z,12.30
2023-10-18T13:50:20.752Z,12.30
2023-10-18T13:53:11.989Z,12.10
2023-10-18T13:56:01.108Z,12.00
2023-10-18T13:58:48.008Z,11.60
2023-10-18T14:01:35.989Z,11.80
2023-10-18T14:04:26.586Z,11.90
2023-10-18T14:07:12.865Z,12.40
2023-10-18T14:09:59.662Z,11.80
2023-10-18T14:12:47.676Z,11.90
2023-10-18T14:18:20.548Z,12.00
2023-10-18T14:21:06.207Z,12.60
2023-10-18T14:26:49.933Z,12.30
2023-10-18T14:29:35.930Z,12.10
2023-10-18T14:35:08.460Z,11.80
2023-10-18T14:37:54.205Z,11.60
2023-10-18T14:41:00.271Z,12.10
2023-10-18T14:43:55.148Z,12.30
2023-10-18T14:49:29.823Z,12.10
2023-10-18T14:55:07.712Z,12.20
2023-10-18T14:57:55.409Z,12.10
2023-10-18T15:03:29.686Z,12.20
2023-10-18T15:06:21.324Z,12.10
2023-10-18T15:09:11.440Z,12.00
2023-10-18T15:17:29.690Z,11.80
2023-10-18T15:31:23.380Z,12.00
2023-10-18T15:36:55.118Z,12.00
2023-10-18T15:39:44.675Z,12.40
2023-10-18T15:45:19.099Z,11.80
2023-10-18T15:50:52.471Z,12.40
2023-10-18T15:53:48.965Z,12.20
2023-10-18T15:59:33.228Z,13.10
2023-10-18T16:02:19.106Z,11.90
2023-10-18T16:07:55.751Z,11.80
2023-10-18T16:10:42.049Z,11.80
2023-10-18T16:19:00.858Z,13.30
2023-10-18T16:21:46.726Z,11.80
2023-10-18T16:24:32.632Z,12.10
2023-10-18T16:30:06.791Z,11.70
2023-10-18T16:41:17.681Z,12.50
2023-10-18T16:52:24.364Z,11.80
2023-10-18T16:55:12.822Z,12.10
2023-10-18T16:57:58.586Z,11.80
2023-10-18T17:00:44.567Z,12.30
2023-10-18T17:03:31.226Z,11.60
2023-10-18T17:06:17.893Z,11.80
2023-10-18T17:14:36.705Z,11.90
2023-10-18T17:17:23.519Z,11.80
2023-10-18T17:20:18.947Z,12.10
2023-10-18T17:23:05.459Z,12.20
2023-10-18T17:31:23.771Z,12.50
2023-10-18T17:34:12.800Z,11.90
2023-10-18T17:39:44.732Z,11.80
2023-10-18T17:42:36.338Z,11.70
2023-10-18T17:45:26.834Z,12.20
2023-10-18T17:48:16.907Z,11.90
2023-10-18T17:51:10.085Z,12.10
2023-10-18T17:56:42.313Z,11.90
2023-10-18T18:02:14.696Z,12.10
2023-10-18T18:05:01.232Z,11.80
2023-10-18T18:07:47.218Z,12.00
2023-10-18T18:13:26.722Z,12.20
2023-10-18T18:16:15.565Z,12.30
2023-10-18T18:24:34.134Z,12.40
2023-10-18T18:30:09.417Z,11.90
2023-10-18T18:33:01.345Z,12.50
2023-10-18T18:35:47.820Z,12.40
2023-10-18T18:41:20.169Z,11.70
2023-10-18T18:44:08.802Z,11.80
2023-10-18T18:46:55.964Z,12.30
2023-10-18T18:52:28.453Z,12.10
2023-10-18T18:55:19.467Z,12.30
2023-10-18T18:58:14.602Z,12.40
2023-10-18T19:01:03.636Z,12.40
2023-10-18T19:03:50.370Z,12.20
2023-10-18T19:06:36.581Z,11.70
2023-10-18T19:09:24.558Z,11.70
2023-10-18T19:14:58.651Z,11.70
2023-10-18T19:17:48.895Z,12.10
2023-10-18T19:20:34.984Z,13.50
2023-10-18T19:23:21.157Z,12.40
2023-10-18T19:26:13.481Z,12.20
2023-10-18T19:28:59.358Z,12.20
2023-10-18T19:31:46.928Z,11.50
2023-10-18T19:37:20.865Z,12.10
2023-10-18T19:40:08.697Z,11.90
2023-10-18T19:45:40.661Z,12.00
2023-10-18T19:48:31.542Z,12.10
2023-10-18T19:51:17.355Z,12.50
2023-10-18T19:56:50.199Z,12.20
2023-10-18T19:59:35.975Z,12.20
2023-10-18T20:02:21.787Z,12.30
2023-10-18T20:05:07.783Z,11.90
2023-10-18T20:07:54.802Z,11.90
2023-10-18T20:19:03.402Z,11.90
2023-10-18T20:21:53.510Z,12.10
2023-10-18T20:27:25.625Z,12.00
2023-10-18T20:30:13.525Z,12.00
2023-10-18T20:32:59.437Z,11.60
2023-10-18T20:38:35.212Z,13.20
2023-10-18T20:41:24.257Z,11.70
2023-10-18T20:44:20.410Z,12.20
2023-10-18T20:50:25.476Z,11.80
2023-10-18T20:53:19.654Z,12.10
2023-10-18T21:18:38.996Z,12.20
2023-10-18T21:21:24.917Z,11.90
2023-10-18T21:24:12.285Z,12.10
2023-10-18T21:32:31.185Z,12.20
2023-10-18T21:40:50.084Z,11.60
2023-10-18T21:51:54.091Z,11.90
2023-10-18T21:54:40.059Z,12.30
2023-10-18T21:57:27.906Z,12.10
2023-10-18T22:00:37.338Z,12.60
2023-10-18T22:09:23.199Z,12.00
2023-10-18T22:14:55.992Z,12.30
2023-10-18T22:17:47.808Z,12.20
2023-10-18T22:20:39.240Z,11.90
2023-10-18T22:43:04.716Z,11.80
2023-10-18T22:54:44.648Z,11.70
2023-10-18T22:57:37.609Z,11.90
2023-10-18T23:00:33.050Z,11.80
2023-10-18T23:09:07.281Z,12.30
2023-10-18T23:12:00.216Z,12.20
2023-10-18T23:26:27.629Z,11.80
2023-10-18T23:35:19.079Z,11.70
2023-10-18T23:38:18.739Z,12.30
2023-10-18T23:41:05.447Z,11.70
2023-10-18T23:46:57.944Z,11.80
2023-10-18T23:52:37.331Z,11.60
2023-10-18T23:55:40.769Z,11.60
2023-10-18T23:58:30.429Z,11.80
